createdAt,value
2022-10-01T00:01:17.035Z,100197.55
2022-10-01T00:03:43.934Z,100198.90
2022-10-01T00:06:13.901Z,100196.30
2022-10-01T00:08:42.848Z,100195.27
2022-10-01T00:11:12.602Z,100194.84
2022-10-01T00:13:40.188Z,100195.70
2022-10-01T00:16:09.001Z,100191.41
2022-10-01T00:18:41.746Z,100195.34
2022-10-01T00:21:10.667Z,100199.04
2022-10-01T00:23:38.506Z,100198.88
2022-10-01T00:26:17.454Z,100203.67
2022-10-01T00:28:46.887Z,100200.45
2022-10-01T00:31:16.037Z,100202.81
2022-10-01T00:33:43.278Z,100197.31
2022-10-01T00:36:11.727Z,100193.31
2022-10-01T00:38:42.895Z,100199.59
2022-10-01T00:41:10.588Z,100205.16
2022-10-01T00:43:42.632Z,100205.77
2022-10-01T00:46:42.447Z,100213.27
2022-10-01T00:49:19.173Z,100222.24
2022-10-01T00:51:51.183Z,100219.48
2022-10-01T00:54:23.964Z,100209.34
2022-10-01T00:56:54.217Z,100200.42
2022-10-01T00:59:21.599Z,100199.05
2022-10-01T01:01:49.168Z,100201.90
2022-10-01T01:04:19.198Z,100198.95
2022-10-01T01:06:56.050Z,100192.23
2022-10-01T01:09:34.108Z,100194.09
2022-10-01T01:12:31.658Z,100192.07
2022-10-01T01:15:07.831Z,100192.23
2022-10-01T01:17:48.417Z,100194.16
2022-10-01T01:20:47.385Z,100189.98
2022-10-01T01:23:16.833Z,100197.16
2022-10-01T01:26:21.880Z,100197.80
2022-10-01T01:28:56.092Z,100201.23
2022-10-01T01:31:29.639Z,100199.98
2022-10-01T01:34:00.379Z,100201.34
2022-10-01T01:36:32.955Z,100209.77
2022-10-01T01:39:04.393Z,100208.84
2022-10-01T01:41:35.750Z,100205.27
2022-10-01T01:44:07.086Z,100206.60
2022-10-01T01:46:36.357Z,100201.80
2022-10-01T01:49:05.518Z,100202.21
2022-10-01T01:51:40.424Z,100215.52
2022-10-01T01:54:08.546Z,100219.34
2022-10-01T01:56:35.929Z,100211.98
2022-10-01T01:59:04.029Z,100204.37
2022-10-01T02:01:40.364Z,100209.71
2022-10-01T02:04:12.077Z,100211.77
2022-10-01T02:07:06.874Z,100213.45
2022-10-01T02:10:12.644Z,100215.30
2022-10-01T02:12:55.105Z,100223.90
2022-10-01T02:15:36.316Z,100227.83
2022-10-01T02:18:18.865Z,100228.23
2022-10-01T02:20:50.868Z,100231.59
2022-10-01T02:23:26.135Z,100230.59
2022-10-01T02:25:58.597Z,100229.44
2022-10-01T02:28:26.331Z,100231.78
2022-10-01T02:30:56.276Z,100229.27
2022-10-01T02:33:32.159Z,100230.45
2022-10-01T02:36:01.513Z,100226.44
2022-10-01T02:38:29.966Z,100220.83
2022-10-01T02:41:01.257Z,100217.31
2022-10-01T02:43:43.313Z,100214.98
2022-10-01T02:46:22.158Z,100206.33
2022-10-01T02:48:51.561Z,100195.00
2022-10-01T02:51:18.306Z,100192.97
2022-10-01T02:53:49.583Z,100191.45
2022-10-01T02:56:48.631Z,100186.95
2022-10-01T02:59:15.847Z,100182.43
2022-10-01T03:01:42.927Z,100181.64
2022-10-01T03:04:09.802Z,100175.63
2022-10-01T03:06:36.792Z,100173.98
2022-10-01T03:09:03.896Z,100168.31
2022-10-01T03:11:31.055Z,100165.23
2022-10-01T03:13:58.498Z,100165.02
2022-10-01T03:16:25.583Z,100163.09
2022-10-01T03:18:52.495Z,100160.48
2022-10-01T03:21:19.386Z,100158.20
2022-10-01T03:23:46.269Z,100151.91
2022-10-01T03:26:13.108Z,100152.77
2022-10-01T03:28:39.905Z,100150.59
2022-10-01T03:31:11.587Z,100148.78
2022-10-01T03:33:38.588Z,100147.66
2022-10-01T03:36:05.508Z,100149.79
2022-10-01T03:38:32.379Z,100156.34
2022-10-01T03:40:59.202Z,100159.54
2022-10-01T03:43:29.141Z,100160.80
2022-10-01T03:45:56.986Z,100165.79
2022-10-01T03:48:24.761Z,100177.73
2022-10-01T03:50:59.784Z,100181.70
2022-10-01T03:53:28.286Z,100179.88
2022-10-01T03:55:56.335Z,100184.52
2022-10-01T03:58:23.719Z,100177.39
2022-10-01T04:00:51.332Z,100180.56
2022-10-01T04:03:18.802Z,100180.48
2022-10-01T04:05:46.290Z,100180.58
2022-10-01T04:08:14.031Z,100183.39
2022-10-01T04:10:42.117Z,100178.89
2022-10-01T04:13:09.768Z,100178.22
2022-10-01T04:15:36.916Z,100179.69
2022-10-01T04:18:06.286Z,100171.27
2022-10-01T04:20:38.402Z,100168.96
2022-10-01T04:23:05.943Z,100167.78
2022-10-01T04:25:32.902Z,100171.63
2022-10-01T04:28:02.636Z,100172.27
2022-10-01T04:30:33.576Z,100174.48
2022-10-01T04:33:00.887Z,100171.13
2022-10-01T04:35:28.307Z,100170.91
2022-10-01T04:38:02.122Z,100171.09
2022-10-01T04:40:30.409Z,100170.52
2022-10-01T04:42:57.665Z,100171.57
2022-10-01T04:45:24.595Z,100170.51
2022-10-01T04:47:54.223Z,100166.30
2022-10-01T04:50:23.716Z,100167.35
2022-10-01T04:52:51.574Z,100163.10
2022-10-01T04:55:20.635Z,100167.17
2022-10-01T04:57:48.329Z,100169.10
2022-10-01T05:00:19.378Z,100170.34
2022-10-01T05:02:48.308Z,100171.59
2022-10-01T05:05:17.518Z,100165.08
2022-10-01T05:07:44.815Z,100168.09
2022-10-01T05:10:20.077Z,100169.88
2022-10-01T05:12:47.844Z,100169.70
2022-10-01T05:15:16.730Z,100169.34
2022-10-01T05:17:44.073Z,100173.96
2022-10-01T05:20:16.958Z,100174.11
2022-10-01T05:22:45.246Z,100177.48
2022-10-01T05:25:12.173Z,100175.73
2022-10-01T05:27:40.593Z,100175.18
2022-10-01T05:30:09.806Z,100176.06
2022-10-01T05:32:37.943Z,100177.61
2022-10-01T05:35:08.870Z,100183.77
2022-10-01T05:37:36.157Z,100178.11
2022-10-01T05:40:03.223Z,100179.97
2022-10-01T05:42:30.158Z,100182.23
2022-10-01T05:44:57.181Z,100179.63
2022-10-01T05:47:24.147Z,100178.36
2022-10-01T05:49:50.995Z,100180.90
2022-10-01T05:52:18.039Z,100181.36
2022-10-01T05:54:44.909Z,100178.16
2022-10-01T05:57:11.863Z,100182.05
2022-10-01T05:59:38.725Z,100186.34
2022-10-01T06:02:05.817Z,100184.06
2022-10-01T06:04:34.749Z,100186.50
2022-10-01T06:07:04.348Z,100186.15
2022-10-01T06:09:31.484Z,100183.30
2022-10-01T06:12:01.181Z,100181.34
2022-10-01T06:14:28.411Z,100178.53
2022-10-01T06:19:57.747Z,100170.77
2022-10-01T06:22:25.092Z,100174.49
2022-10-01T06:24:56.494Z,100168.70
2022-10-01T06:27:24.636Z,100168.39
2022-10-01T06:29:51.777Z,100172.19
2022-10-01T06:32:20.216Z,100168.33
2022-10-01T06:35:08.997Z,100162.10
2022-10-01T06:37:39.430Z,100162.84
2022-10-01T06:40:07.612Z,100163.31
2022-10-01T06:42:34.767Z,100159.00
2022-10-01T06:45:01.700Z,100162.87
2022-10-01T06:47:28.921Z,100160.33
2022-10-01T06:49:55.742Z,100158.55
2022-10-01T06:52:41.180Z,100158.85
2022-10-01T06:55:13.093Z,100160.32
2022-10-01T06:57:43.037Z,100157.92
2022-10-01T07:00:11.321Z,100154.28
2022-10-01T07:02:38.933Z,100153.18
2022-10-01T07:05:07.571Z,100154.77
2022-10-01T07:07:38.665Z,100153.71
2022-10-01T07:10:07.701Z,100155.73
2022-10-01T07:12:36.088Z,100159.52
2022-10-01T07:15:03.212Z,100158.66
2022-10-01T07:17:49.768Z,100158.92
2022-10-01T07:20:18.825Z,100154.83
2022-10-01T07:22:47.697Z,100150.79
2022-10-01T07:25:15.463Z,100148.34
2022-10-01T07:27:42.423Z,100148.04
2022-10-01T07:30:10.005Z,100148.19
2022-10-01T07:32:37.149Z,100149.17
2022-10-01T07:35:06.167Z,100148.59
2022-10-01T07:37:33.209Z,100152.10
2022-10-01T07:40:03.058Z,100149.81
2022-10-01T07:42:33.617Z,100146.40
2022-10-01T07:45:00.666Z,100145.50
2022-10-01T07:47:27.633Z,100148.44
2022-10-01T07:49:54.579Z,100148.23
2022-10-01T07:52:21.499Z,100151.94
2022-10-01T07:54:48.813Z,100153.11
2022-10-01T07:57:15.802Z,100152.92
2022-10-01T07:59:43.112Z,100148.58
2022-10-01T08:02:17.832Z,100155.44
2022-10-01T08:05:03.713Z,100159.02
2022-10-01T08:07:32.184Z,100163.64
2022-10-01T08:10:00.012Z,100162.29
2022-10-01T08:12:29.128Z,100158.80
2022-10-01T08:14:56.302Z,100158.58
2022-10-01T08:17:27.254Z,100152.70
2022-10-01T08:19:56.736Z,100147.69
2022-10-01T08:22:23.765Z,100141.88
2022-10-01T08:24:50.554Z,100137.50
2022-10-01T08:27:17.311Z,100135.67
2022-10-01T08:29:44.099Z,100134.43
2022-10-01T08:32:11.395Z,100130.89
2022-10-01T08:34:38.340Z,100129.45
2022-10-01T08:37:05.587Z,100127.63
2022-10-01T08:39:32.493Z,100121.13
2022-10-01T08:42:36.754Z,100117.95
2022-10-01T08:45:12.811Z,100112.53
2022-10-01T08:47:44.317Z,100109.65
2022-10-01T08:50:49.716Z,100107.90
2022-10-01T08:53:39.987Z,100111.70
2022-10-01T08:56:18.056Z,100105.48
2022-10-01T08:58:50.454Z,100108.58
2022-10-01T09:01:17.418Z,100107.99
2022-10-01T09:03:44.336Z,100098.64
2022-10-01T09:06:28.565Z,100091.11
2022-10-01T09:09:07.378Z,100096.58
2022-10-01T09:11:58.903Z,100092.81
2022-10-01T09:14:36.070Z,100092.09
2022-10-01T09:17:22.004Z,100092.86
2022-10-01T09:19:59.186Z,100089.32
2022-10-01T09:22:39.398Z,100085.63
2022-10-01T09:25:27.890Z,100074.27
2022-10-01T09:28:07.585Z,100075.86
2022-10-01T09:30:36.719Z,100078.88
2022-10-01T09:33:15.652Z,100078.44
2022-10-01T09:36:05.277Z,100080.67
2022-10-01T09:38:48.477Z,100079.98
2022-10-01T09:41:16.330Z,100075.77
2022-10-01T09:43:44.093Z,100078.27
2022-10-01T09:46:17.250Z,100078.98
2022-10-01T09:49:09.571Z,100079.88
2022-10-01T09:51:42.944Z,100079.51
2022-10-01T09:54:17.811Z,100079.43
2022-10-01T09:57:20.007Z,100080.75
2022-10-01T10:00:18.781Z,100078.12
2022-10-01T10:02:49.556Z,100072.67
2022-10-01T10:05:19.806Z,100072.32
2022-10-01T10:07:58.995Z,100073.85
2022-10-01T10:10:35.941Z,100070.66
2022-10-01T10:13:17.499Z,100064.65
2022-10-01T10:15:52.378Z,100055.16
2022-10-01T10:18:29.990Z,100053.48
2022-10-01T10:20:59.496Z,100055.16
2022-10-01T10:23:26.992Z,100054.86
2022-10-01T10:26:02.989Z,100055.88
2022-10-01T10:28:42.121Z,100049.11
2022-10-01T10:31:16.304Z,100047.05
2022-10-01T10:34:16.513Z,100038.55
2022-10-01T10:36:46.009Z,100024.43
2022-10-01T10:39:29.491Z,100018.39
2022-10-01T10:41:58.723Z,100013.98
2022-10-01T10:44:35.326Z,100012.40
2022-10-01T10:47:07.495Z,100009.80
2022-10-01T10:49:44.010Z,100013.35
2022-10-01T10:52:29.205Z,100009.33
2022-10-01T10:54:58.043Z,100002.29
2022-10-01T10:57:28.177Z,100001.78
2022-10-01T10:59:59.752Z,100002.84
2022-10-01T11:02:32.185Z,99996.11
2022-10-01T11:05:20.775Z,99987.52
2022-10-01T11:07:51.355Z,99984.55
2022-10-01T11:10:31.220Z,99980.89
2022-10-01T11:13:18.696Z,99978.42
2022-10-01T11:16:05.802Z,99972.02
2022-10-01T11:18:56.675Z,99972.63
2022-10-01T11:21:29.223Z,99966.30
2022-10-01T11:24:33.379Z,99960.30
2022-10-01T11:27:07.026Z,99961.48
2022-10-01T11:29:43.654Z,99957.21
2022-10-01T11:32:48.016Z,99950.10
2022-10-01T11:35:27.203Z,99938.94
2022-10-01T11:38:27.494Z,99937.60
2022-10-01T11:41:07.045Z,99924.32
2022-10-01T11:43:41.029Z,99914.89
2022-10-01T11:46:14.365Z,99907.54
2022-10-01T11:48:45.065Z,99906.70
2022-10-01T11:51:18.294Z,99898.34
2022-10-01T11:53:54.772Z,99889.33
2022-10-01T11:56:46.458Z,99884.52
2022-10-01T11:59:34.750Z,99882.23
2022-10-01T12:02:28.377Z,99882.80
2022-10-01T12:04:55.866Z,99885.38
2022-10-01T12:07:28.249Z,99885.27
2022-10-01T12:09:54.998Z,99877.80
2022-10-01T12:12:42.623Z,99875.05
2022-10-01T12:15:19.143Z,99867.84
2022-10-01T12:17:54.338Z,99861.05
2022-10-01T12:20:30.749Z,99855.27
2022-10-01T12:23:00.868Z,99861.11
2022-10-01T12:25:40.059Z,99854.00
2022-10-01T12:28:13.667Z,99851.59
2022-10-01T12:31:06.384Z,99851.00
2022-10-01T12:34:02.173Z,99850.41
2022-10-01T12:36:38.228Z,99840.36
2022-10-01T12:39:42.207Z,99836.79
2022-10-01T12:43:06.353Z,99829.83
2022-10-01T12:46:06.799Z,99824.73
2022-10-01T12:48:55.011Z,99820.95
2022-10-01T12:51:31.280Z,99823.46
2022-10-01T12:54:24.689Z,99820.23
2022-10-01T12:57:01.888Z,99816.93
2022-10-01T12:59:35.938Z,99810.13
2022-10-01T13:02:42.033Z,99806.86
2022-10-01T13:05:50.147Z,99797.80
2022-10-01T13:08:58.486Z,99793.33
2022-10-01T13:11:57.373Z,99791.46
2022-10-01T13:14:25.828Z,99794.13
2022-10-01T13:17:09.818Z,99797.25
2022-10-01T13:20:18.198Z,99794.61
2022-10-01T13:22:57.170Z,99791.92
2022-10-01T13:25:45.736Z,99785.92
2022-10-01T13:28:17.750Z,99785.36
2022-10-01T13:30:53.334Z,99781.52
2022-10-01T13:33:24.813Z,99777.23
2022-10-01T13:35:58.707Z,99780.53
2022-10-01T13:38:39.523Z,99780.89
2022-10-01T13:41:31.239Z,99781.02
2022-10-01T13:44:04.908Z,99778.84
2022-10-01T13:46:36.113Z,99770.77
2022-10-01T13:49:17.784Z,99765.24
2022-10-01T13:51:46.248Z,99763.10
2022-10-01T13:54:28.769Z,99763.35
2022-10-01T13:56:55.769Z,99763.04
2022-10-01T13:59:34.637Z,99761.42
2022-10-01T14:02:03.471Z,99760.77
2022-10-01T14:04:40.364Z,99761.73
2022-10-01T14:07:18.168Z,99757.40
2022-10-01T14:09:50.141Z,99751.41
2022-10-01T14:12:52.604Z,99744.11
2022-10-01T14:15:44.790Z,99735.83
2022-10-01T14:18:23.624Z,99728.97
2022-10-01T14:21:17.990Z,99726.24
2022-10-01T14:24:01.763Z,99725.27
2022-10-01T14:26:43.495Z,99722.36
2022-10-01T14:29:34.925Z,99726.39
2022-10-01T14:32:23.515Z,99724.15
2022-10-01T14:35:20.846Z,99720.75
2022-10-01T14:37:48.029Z,99711.91
2022-10-01T14:40:21.907Z,99707.14
2022-10-01T14:43:02.540Z,99709.56
2022-10-01T14:45:30.449Z,99708.74
2022-10-01T14:48:02.467Z,99705.52
2022-10-01T14:50:32.929Z,99707.40
2022-10-01T14:52:59.862Z,99702.20
2022-10-01T14:55:27.885Z,99700.54
2022-10-01T14:57:56.445Z,99692.38
2022-10-01T15:00:26.522Z,99690.12
2022-10-01T15:03:03.641Z,99683.26
2022-10-01T15:05:33.771Z,99682.25
2022-10-01T15:08:13.886Z,99682.30
2022-10-01T15:10:45.864Z,99681.21
2022-10-01T15:13:34.011Z,99677.13
2022-10-01T15:16:02.169Z,99676.34
2022-10-01T15:18:30.078Z,99675.98
2022-10-01T15:21:02.749Z,99670.81
2022-10-01T15:23:30.920Z,99668.38
2022-10-01T15:26:00.791Z,99667.36
2022-10-01T15:28:33.607Z,99663.01
2022-10-01T15:31:06.842Z,99658.73
2022-10-01T15:33:40.710Z,99655.95
2022-10-01T15:36:18.053Z,99657.19
2022-10-01T15:38:49.137Z,99648.85
2022-10-01T15:41:32.542Z,99651.05
2022-10-01T15:44:03.787Z,99643.29
2022-10-01T15:46:35.103Z,99643.75
2022-10-01T15:49:17.433Z,99635.05
2022-10-01T15:52:11.732Z,99632.06
2022-10-01T15:54:41.979Z,99632.64
2022-10-01T15:57:10.460Z,99637.56
2022-10-01T15:59:41.049Z,99639.73
2022-10-01T16:02:14.538Z,99644.34
2022-10-01T16:04:41.745Z,99638.11
2022-10-01T16:07:20.096Z,99633.50
2022-10-01T16:09:56.930Z,99632.86
2022-10-01T16:12:23.881Z,99627.05
2022-10-01T16:14:58.069Z,99623.80
2022-10-01T16:17:35.393Z,99615.71
2022-10-01T16:20:14.570Z,99613.92
2022-10-01T16:22:42.474Z,99603.27
2022-10-01T16:25:19.877Z,99593.45
2022-10-01T16:27:56.456Z,99590.90
2022-10-01T16:30:27.810Z,99584.66
2022-10-01T16:32:56.231Z,99581.55
2022-10-01T16:35:24.625Z,99578.17
2022-10-01T16:37:55.121Z,99577.96
2022-10-01T16:40:27.388Z,99567.63
2022-10-01T16:42:54.720Z,99567.27
2022-10-01T16:45:27.836Z,99573.45
2022-10-01T16:47:59.223Z,99575.09
2022-10-01T16:50:26.462Z,99577.42
2022-10-01T16:52:55.713Z,99577.27
2022-10-01T16:55:25.811Z,99575.09
2022-10-01T16:57:54.780Z,99570.33
2022-10-01T17:00:24.643Z,99567.93
2022-10-01T17:02:52.610Z,99571.97
2022-10-01T17:05:25.636Z,99572.23
2022-10-01T17:07:54.019Z,99567.56
2022-10-01T17:10:23.704Z,99565.27
2022-10-01T17:12:51.548Z,99563.52
2022-10-01T17:15:23.426Z,99557.71
2022-10-01T17:17:50.198Z,99555.09
2022-10-01T17:20:17.199Z,99552.36
2022-10-01T17:22:44.213Z,99546.01
2022-10-01T17:25:15.801Z,99540.47
2022-10-01T17:27:42.928Z,99538.77
2022-10-01T17:30:10.130Z,99537.03
2022-10-01T17:32:39.890Z,99531.25
2022-10-01T17:35:07.787Z,99524.40
2022-10-01T17:37:35.039Z,99527.94
2022-10-01T17:40:02.478Z,99532.70
2022-10-01T17:42:31.065Z,99532.36
2022-10-01T17:44:58.153Z,99535.91
2022-10-01T17:47:25.110Z,99539.89
2022-10-01T17:49:51.948Z,99534.21
2022-10-01T17:52:19.156Z,99533.02
2022-10-01T17:54:46.410Z,99531.40
2022-10-01T17:57:14.053Z,99530.75
2022-10-01T17:59:41.035Z,99530.45
2022-10-01T18:02:29.666Z,99531.65
2022-10-01T18:04:56.455Z,99536.52
2022-10-01T18:07:27.525Z,99534.23
2022-10-01T18:09:54.630Z,99527.91
2022-10-01T18:12:21.684Z,99530.18
2022-10-01T18:14:50.030Z,99525.65
2022-10-01T18:17:17.456Z,99525.79
2022-10-01T18:22:32.207Z,99514.94
2022-10-01T18:24:59.103Z,99511.54
2022-10-01T18:27:26.186Z,99512.22
2022-10-01T18:29:53.214Z,99505.23
2022-10-01T18:32:23.675Z,99502.55
2022-10-01T18:34:54.511Z,99499.23
2022-10-01T18:37:21.261Z,99497.50
2022-10-01T18:39:56.043Z,99497.92
2022-10-01T18:42:55.340Z,99494.64
2022-10-01T18:46:04.286Z,99494.60
2022-10-01T18:48:49.902Z,99485.01
2022-10-01T18:51:21.327Z,99480.98
2022-10-01T18:53:58.575Z,99481.49
2022-10-01T18:56:33.706Z,99477.23
2022-10-01T18:59:22.456Z,99481.18
2022-10-01T19:02:04.694Z,99480.92
2022-10-01T19:04:45.946Z,99480.30
2022-10-01T19:07:37.370Z,99479.78
2022-10-01T19:10:41.743Z,99474.71
2022-10-01T19:13:28.324Z,99469.27
2022-10-01T19:16:19.438Z,99467.52
2022-10-01T19:19:04.399Z,99465.80
2022-10-01T19:21:49.578Z,99468.20
2022-10-01T19:24:59.480Z,99466.13
2022-10-01T19:28:26.300Z,99466.15
2022-10-01T19:31:23.697Z,99463.56
2022-10-01T19:33:56.730Z,99465.66
2022-10-01T19:36:37.677Z,99464.80
2022-10-01T19:39:11.028Z,99461.14
2022-10-01T19:41:51.938Z,99456.02
2022-10-01T19:44:45.033Z,99448.37
2022-10-01T19:47:44.006Z,99449.70
2022-10-01T19:50:29.300Z,99440.14
2022-10-01T19:52:58.666Z,99441.89
2022-10-01T19:55:33.991Z,99437.04
2022-10-01T19:58:21.630Z,99438.18
2022-10-01T20:00:54.650Z,99437.55
2022-10-01T20:03:34.860Z,99436.56
2022-10-01T20:06:20.557Z,99439.25
2022-10-01T20:08:56.091Z,99440.34
2022-10-01T20:11:36.494Z,99440.02
2022-10-01T20:14:36.386Z,99439.16
2022-10-01T20:17:24.473Z,99440.52
2022-10-01T20:20:13.349Z,99436.05
2022-10-01T20:22:58.704Z,99431.16
2022-10-01T20:25:25.751Z,99435.89
2022-10-01T20:28:19.412Z,99439.63
2022-10-01T20:31:00.749Z,99442.68
2022-10-01T20:34:06.528Z,99442.94
2022-10-01T20:37:10.279Z,99434.14
2022-10-01T20:39:44.279Z,99438.67
2022-10-01T20:42:18.304Z,99437.00
2022-10-01T20:44:46.437Z,99432.61
2022-10-01T20:47:23.932Z,99432.89
2022-10-01T20:50:09.177Z,99427.85
2022-10-01T20:53:08.720Z,99421.70
2022-10-01T20:55:46.155Z,99427.35
2022-10-01T20:58:22.389Z,99432.51
2022-10-01T21:00:54.593Z,99434.83
2022-10-01T21:03:27.898Z,99435.11
2022-10-01T21:06:15.884Z,99430.82
2022-10-01T21:08:57.632Z,99425.13
2022-10-01T21:11:33.869Z,99430.70
2022-10-01T21:14:41.700Z,99440.77
2022-10-01T21:17:34.515Z,99463.43
2022-10-01T21:20:21.819Z,99470.67
2022-10-01T21:22:57.784Z,99472.98
2022-10-01T21:25:42.087Z,99471.65
2022-10-01T21:28:31.473Z,99469.83
2022-10-01T21:31:17.311Z,99477.00
2022-10-01T21:34:03.306Z,99477.23
2022-10-01T21:37:16.314Z,99479.57
2022-10-01T21:40:08.160Z,99484.10
2022-10-01T21:42:53.363Z,99492.09
2022-10-01T21:46:00.476Z,99489.92
2022-10-01T21:49:01.099Z,99491.57
2022-10-01T21:51:49.378Z,99489.64
2022-10-01T21:54:51.484Z,99488.15
2022-10-01T21:57:27.484Z,99489.29
2022-10-01T22:00:20.216Z,99484.08
2022-10-01T22:03:12.082Z,99485.61
2022-10-01T22:06:13.095Z,99485.22
2022-10-01T22:08:52.144Z,99484.77
2022-10-01T22:11:23.558Z,99496.15
2022-10-01T22:14:00.442Z,99493.77
2022-10-01T22:16:35.380Z,99492.26
2022-10-01T22:19:16.718Z,99489.72
2022-10-01T22:21:48.530Z,99485.41
2022-10-01T22:24:22.416Z,99483.75
2022-10-01T22:27:11.688Z,99486.81
2022-10-01T22:29:43.556Z,99485.98
2022-10-01T22:32:14.206Z,99485.48
2022-10-01T22:34:48.328Z,99488.38
2022-10-01T22:37:23.437Z,99491.93
2022-10-01T22:40:05.351Z,99485.83
2022-10-01T22:42:41.221Z,99485.98
2022-10-01T22:45:16.897Z,99486.83
2022-10-01T22:47:58.887Z,99488.29
2022-10-01T22:50:34.309Z,99490.66
2022-10-01T22:53:24.183Z,99490.18
2022-10-01T22:55:55.146Z,99491.43
2022-10-01T22:58:37.026Z,99494.66
2022-10-01T23:01:09.438Z,99497.83
2022-10-01T23:04:14.204Z,99501.94
2022-10-01T23:07:07.665Z,99504.64
2022-10-01T23:10:04.496Z,99508.73
2022-10-01T23:12:47.280Z,99507.78
2022-10-01T23:15:43.655Z,99505.41
2022-10-01T23:18:41.067Z,99504.02
2022-10-01T23:21:29.044Z,99504.09
2022-10-01T23:24:05.833Z,99507.84
2022-10-01T23:26:44.980Z,99507.16
2022-10-01T23:29:49.306Z,99504.05
2022-10-01T23:32:34.706Z,99508.20
2022-10-01T23:35:13.789Z,99507.68
2022-10-01T23:38:04.398Z,99511.29
2022-10-01T23:40:44.548Z,99508.34
2022-10-01T23:43:36.205Z,99506.10
2022-10-01T23:46:15.893Z,99510.24
2022-10-01T23:48:46.867Z,99512.22
2022-10-01T23:51:25.928Z,99510.59
2022-10-01T23:54:03.198Z,99510.45
2022-10-01T23:56:48.866Z,99516.80
2022-10-01T23:59:37.636Z,99513.90
